createdAt,value
2022-12-29T00:00:39.414Z,58.57
2022-12-29T00:03:58.396Z,58.31
2022-12-29T00:07:05.449Z,58.49
2022-12-29T00:10:14.734Z,58.19
2022-12-29T00:13:41.501Z,58.30
2022-12-29T00:16:56.868Z,58.25
2022-12-29T00:20:18.825Z,58.31
2022-12-29T00:23:39.998Z,58.09
2022-12-29T00:27:01.912Z,58.24
2022-12-29T00:30:29.624Z,58.97
2022-12-29T00:33:52.608Z,59.28
2022-12-29T00:36:56.231Z,59.50
2022-12-29T00:40:18.400Z,59.40
2022-12-29T00:43:39.452Z,58.73
2022-12-29T00:46:46.528Z,58.48
2022-12-29T00:49:51.041Z,57.29
2022-12-29T00:52:56.179Z,58.53
2022-12-29T00:55:59.869Z,59.05
2022-12-29T00:59:10.446Z,59.11
2022-12-29T01:02:16.519Z,59.53
2022-12-29T01:05:20.969Z,58.85
2022-12-29T01:08:25.732Z,58.14
2022-12-29T01:11:30.707Z,57.64
2022-12-29T01:14:35.007Z,58.36
2022-12-29T01:17:41.142Z,57.93
2022-12-29T01:20:47.185Z,57.98
2022-12-29T01:23:51.178Z,58.55
2022-12-29T01:26:55.579Z,57.49
2022-12-29T01:29:59.779Z,57.17
2022-12-29T01:33:06.165Z,56.89
2022-12-29T01:36:14.622Z,57.89
2022-12-29T01:39:18.227Z,57.67
2022-12-29T01:42:27.353Z,57.96
2022-12-29T01:45:34.109Z,58.43
2022-12-29T01:48:40.917Z,57.75
2022-12-29T01:51:49.219Z,57.66
2022-12-29T01:54:57.375Z,57.76
2022-12-29T01:58:05.952Z,57.13
2022-12-29T02:01:11.204Z,56.62
2022-12-29T02:04:16.871Z,57.18
2022-12-29T02:07:25.612Z,57.98
2022-12-29T02:10:34.823Z,58.05
2022-12-29T02:13:39.734Z,57.77
2022-12-29T02:17:05.201Z,56.92
2022-12-29T02:20:41.899Z,57.47
2022-12-29T02:24:13.048Z,58.35
2022-12-29T02:27:36.890Z,58.24
2022-12-29T02:30:53.882Z,57.11
2022-12-29T02:34:11.516Z,57.37
2022-12-29T02:37:23.421Z,57.52
2022-12-29T02:40:41.244Z,56.83
2022-12-29T02:43:52.799Z,57.81
2022-12-29T02:47:04.624Z,57.65
2022-12-29T02:50:14.644Z,58.25
2022-12-29T02:53:42.476Z,58.51
2022-12-29T02:56:46.658Z,58.59
2022-12-29T02:59:55.623Z,58.46
2022-12-29T03:03:19.122Z,59.06
2022-12-29T03:06:35.486Z,57.92
2022-12-29T03:09:45.842Z,57.17
2022-12-29T03:13:16.272Z,58.43
2022-12-29T03:16:27.344Z,58.58
2022-12-29T03:19:37.996Z,58.06
2022-12-29T03:22:45.094Z,57.83
2022-12-29T03:26:01.810Z,58.81
2022-12-29T03:29:35.339Z,57.86
2022-12-29T03:32:44.292Z,58.62
2022-12-29T03:35:56.477Z,57.66
2022-12-29T03:39:06.212Z,56.37
2022-12-29T03:42:17.152Z,56.96
2022-12-29T03:45:22.905Z,57.33
2022-12-29T03:48:27.555Z,58.41
2022-12-29T03:51:34.703Z,58.00
2022-12-29T03:54:40.250Z,57.30
2022-12-29T03:57:44.501Z,57.70
2022-12-29T04:01:22.982Z,58.35
2022-12-29T04:04:27.250Z,58.72
2022-12-29T04:07:34.075Z,58.34
2022-12-29T04:10:43.190Z,58.99
2022-12-29T04:13:46.893Z,58.31
2022-12-29T04:17:00.213Z,58.23
2022-12-29T04:20:17.972Z,58.55
2022-12-29T04:23:26.987Z,58.71
2022-12-29T04:26:32.065Z,58.55
2022-12-29T04:29:59.848Z,57.79
2022-12-29T04:33:12.869Z,57.67
2022-12-29T04:36:45.599Z,58.42
2022-12-29T04:39:51.609Z,57.74
2022-12-29T04:42:57.161Z,57.94
2022-12-29T04:46:05.567Z,58.04
2022-12-29T04:49:20.811Z,57.71
2022-12-29T04:52:45.455Z,58.28
2022-12-29T04:55:55.009Z,58.18
2022-12-29T04:59:00.302Z,57.93
2022-12-29T05:02:10.483Z,57.96
2022-12-29T05:05:14.806Z,57.42
2022-12-29T05:08:31.733Z,58.05
2022-12-29T05:11:42.874Z,57.53
2022-12-29T05:14:47.693Z,57.14
2022-12-29T05:17:51.596Z,57.07
2022-12-29T05:20:56.181Z,57.30
2022-12-29T05:24:01.530Z,57.76
2022-12-29T05:27:07.828Z,57.36
2022-12-29T05:30:46.824Z,56.88
2022-12-29T05:34:47.757Z,56.35
2022-12-29T05:37:51.439Z,56.95
2022-12-29T05:40:55.799Z,56.69
2022-12-29T05:44:28.558Z,57.42
2022-12-29T05:47:52.751Z,57.15
2022-12-29T05:51:08.362Z,57.07
2022-12-29T05:54:24.922Z,57.36
2022-12-29T05:57:30.500Z,56.49
2022-12-29T06:00:46.552Z,56.98
2022-12-29T06:03:53.108Z,56.89
2022-12-29T06:07:03.337Z,56.86
2022-12-29T06:10:19.302Z,57.03
2022-12-29T06:13:36.972Z,56.70
2022-12-29T06:16:43.137Z,56.83
2022-12-29T06:19:49.720Z,56.52
2022-12-29T06:22:55.042Z,55.99
2022-12-29T06:26:01.777Z,56.48
2022-12-29T06:29:06.491Z,57.22
2022-12-29T06:32:12.525Z,58.00
2022-12-29T06:35:31.774Z,59.34
2022-12-29T06:38:41.677Z,58.57
2022-12-29T06:41:49.367Z,57.73
2022-12-29T06:45:28.857Z,58.56
2022-12-29T06:48:34.443Z,59.33
2022-12-29T06:51:40.860Z,59.53
2022-12-29T06:54:48.158Z,58.41
2022-12-29T06:57:58.493Z,58.95
2022-12-29T07:01:02.572Z,57.58
2022-12-29T07:04:11.218Z,57.98
2022-12-29T07:07:17.347Z,57.71
2022-12-29T07:10:25.510Z,59.16
2022-12-29T07:13:29.260Z,58.78
2022-12-29T07:16:35.495Z,59.20
2022-12-29T07:19:41.520Z,59.31
2022-12-29T07:22:46.475Z,58.79
2022-12-29T07:26:02.693Z,58.66
2022-12-29T07:29:12.216Z,60.10
2022-12-29T07:32:16.734Z,60.22
2022-12-29T07:35:24.584Z,60.15
2022-12-29T07:38:29.367Z,59.30
2022-12-29T07:41:37.570Z,59.45
2022-12-29T07:44:47.610Z,60.27
2022-12-29T07:48:11.036Z,59.82
2022-12-29T07:51:17.816Z,60.11
2022-12-29T07:54:24.081Z,59.56
2022-12-29T07:57:32.121Z,60.18
2022-12-29T08:00:39.967Z,60.00
2022-12-29T08:03:55.421Z,60.30
2022-12-29T08:07:04.693Z,60.80
2022-12-29T08:10:09.421Z,60.02
2022-12-29T08:13:18.482Z,61.78
2022-12-29T08:16:30.133Z,60.96
2022-12-29T08:19:41.029Z,61.33
2022-12-29T08:22:49.915Z,61.09
2022-12-29T08:26:07.294Z,61.17
2022-12-29T08:29:14.101Z,60.55
2022-12-29T08:32:20.784Z,60.96
2022-12-29T08:35:24.779Z,62.03
2022-12-29T08:38:33.056Z,62.00
2022-12-29T08:41:39.547Z,62.14
2022-12-29T08:44:45.031Z,62.00
2022-12-29T08:47:48.874Z,62.29
2022-12-29T08:50:56.442Z,62.05
2022-12-29T08:54:07.702Z,62.80
2022-12-29T08:57:13.279Z,62.49
2022-12-29T09:00:30.776Z,64.03
2022-12-29T09:04:13.503Z,63.87
2022-12-29T09:07:03.924Z,63.79
2022-12-29T09:10:11.402Z,63.62
2022-12-29T09:13:18.004Z,63.53
2022-12-29T09:16:30.508Z,64.42
2022-12-29T09:19:35.832Z,65.47
2022-12-29T09:22:41.291Z,64.26
2022-12-29T09:25:46.478Z,64.15
2022-12-29T09:28:52.085Z,64.67
2022-12-29T09:31:56.339Z,65.62
2022-12-29T09:35:03.605Z,66.24
2022-12-29T09:38:08.513Z,67.22
2022-12-29T09:41:23.063Z,66.50
2022-12-29T09:44:40.020Z,67.72
2022-12-29T09:47:50.259Z,68.63
2022-12-29T09:50:59.669Z,67.34
2022-12-29T09:54:23.259Z,67.32
2022-12-29T09:57:35.989Z,67.83
2022-12-29T10:00:54.561Z,67.60
2022-12-29T10:04:08.936Z,66.56
2022-12-29T10:07:30.154Z,66.78
2022-12-29T10:10:42.913Z,66.69
2022-12-29T10:14:10.898Z,66.31
2022-12-29T10:17:29.560Z,66.30
2022-12-29T10:20:51.624Z,66.92
2022-12-29T10:23:56.731Z,66.25
2022-12-29T10:27:09.725Z,65.78
2022-12-29T10:30:25.399Z,65.74
2022-12-29T10:33:39.383Z,65.58
2022-12-29T10:36:51.969Z,65.27
2022-12-29T10:40:01.723Z,65.96
2022-12-29T10:43:21.480Z,65.33
2022-12-29T10:46:31.596Z,64.91
2022-12-29T10:49:50.188Z,64.36
2022-12-29T10:52:56.330Z,64.06
2022-12-29T10:56:07.096Z,64.39
2022-12-29T10:59:20.022Z,64.25
2022-12-29T11:03:00.296Z,64.29
2022-12-29T11:06:16.042Z,63.92
2022-12-29T11:09:42.163Z,64.14
2022-12-29T11:12:59.234Z,63.05
2022-12-29T11:16:04.454Z,62.93
2022-12-29T11:19:22.129Z,62.67
2022-12-29T11:22:30.215Z,62.62
2022-12-29T11:25:36.285Z,62.74
2022-12-29T11:28:42.216Z,62.65
2022-12-29T11:31:51.484Z,62.73
2022-12-29T11:34:55.524Z,62.67
2022-12-29T11:38:04.124Z,62.79
2022-12-29T11:41:14.919Z,62.89
2022-12-29T11:44:19.953Z,62.91
2022-12-29T11:47:32.517Z,62.90
2022-12-29T11:50:46.009Z,62.85
2022-12-29T11:53:54.582Z,62.68
2022-12-29T11:57:05.399Z,62.58
2022-12-29T12:00:19.327Z,62.22
2022-12-29T12:03:27.116Z,62.52
2022-12-29T12:06:40.605Z,62.31
2022-12-29T12:09:53.126Z,62.29
2022-12-29T12:13:07.334Z,62.06
2022-12-29T12:16:19.048Z,62.21
2022-12-29T12:19:35.585Z,61.85
2022-12-29T12:22:45.660Z,62.13
2022-12-29T12:26:00.089Z,61.84
2022-12-29T12:29:12.879Z,61.76
2022-12-29T12:32:23.274Z,61.61
2022-12-29T12:35:41.339Z,61.50
2022-12-29T12:38:57.336Z,61.72
2022-12-29T12:42:22.548Z,62.20
2022-12-29T12:45:45.919Z,62.01
2022-12-29T12:49:04.060Z,61.63
2022-12-29T12:52:16.709Z,61.89
2022-12-29T12:55:51.569Z,62.12
2022-12-29T12:59:09.159Z,62.30
2022-12-29T13:02:29.038Z,62.10
2022-12-29T13:05:47.126Z,61.94
2022-12-29T13:09:13.196Z,61.94
2022-12-29T13:12:31.531Z,62.03
2022-12-29T13:15:49.076Z,61.85
2022-12-29T13:19:01.492Z,61.91
2022-12-29T13:22:15.418Z,61.77
2022-12-29T13:25:30.318Z,61.72
2022-12-29T13:28:43.430Z,61.55
2022-12-29T13:32:01.254Z,61.64
2022-12-29T13:35:24.735Z,61.90
2022-12-29T13:38:37.354Z,61.92
2022-12-29T13:41:50.035Z,62.16
2022-12-29T13:45:02.279Z,62.04
2022-12-29T13:48:18.649Z,62.19
2022-12-29T13:51:28.305Z,62.34
2022-12-29T13:54:44.274Z,62.29
2022-12-29T13:57:56.248Z,61.88
2022-12-29T14:01:11.629Z,61.98
2022-12-29T14:04:23.831Z,62.07
2022-12-29T14:07:30.935Z,61.90
2022-12-29T14:10:52.260Z,62.28
2022-12-29T14:14:16.976Z,62.12
2022-12-29T14:17:23.723Z,62.41
2022-12-29T14:20:30.896Z,62.24
2022-12-29T14:23:40.969Z,61.81
2022-12-29T14:26:47.700Z,61.77
2022-12-29T14:29:53.992Z,61.52
2022-12-29T14:33:14.064Z,61.86
2022-12-29T14:36:31.684Z,61.50
2022-12-29T14:39:41.373Z,61.67
2022-12-29T14:42:48.794Z,61.86
2022-12-29T14:46:03.393Z,61.75
2022-12-29T14:49:19.870Z,61.84
2022-12-29T14:52:34.401Z,61.87
2022-12-29T14:55:43.372Z,62.28
2022-12-29T14:58:57.002Z,62.18
2022-12-29T15:02:06.146Z,62.29
2022-12-29T15:05:28.583Z,62.80
2022-12-29T15:08:43.042Z,62.50
2022-12-29T15:11:53.017Z,62.86
2022-12-29T15:15:05.711Z,63.21
2022-12-29T15:18:34.864Z,63.20
2022-12-29T15:21:39.133Z,63.33
2022-12-29T15:24:46.400Z,63.56
2022-12-29T15:27:55.128Z,63.78
2022-12-29T15:31:05.930Z,63.59
2022-12-29T15:34:15.661Z,64.00
2022-12-29T15:37:25.775Z,63.99
2022-12-29T15:40:33.904Z,64.40
2022-12-29T15:43:54.816Z,64.55
2022-12-29T15:46:59.300Z,64.48
2022-12-29T15:50:07.791Z,64.33
2022-12-29T15:53:14.502Z,64.08
2022-12-29T15:56:33.858Z,64.26
2022-12-29T15:59:49.766Z,64.16
2022-12-29T16:02:58.715Z,64.29
2022-12-29T16:06:11.589Z,64.57
2022-12-29T16:09:20.099Z,64.44
2022-12-29T16:12:33.726Z,64.72
2022-12-29T16:15:43.601Z,64.92
2022-12-29T16:18:51.954Z,64.83
2022-12-29T16:22:10.941Z,64.95
2022-12-29T16:25:24.821Z,65.03
2022-12-29T16:28:38.588Z,65.00
2022-12-29T16:32:01.796Z,65.12
2022-12-29T16:35:23.300Z,65.50
2022-12-29T16:38:35.912Z,65.37
2022-12-29T16:41:41.297Z,65.40
2022-12-29T16:44:46.823Z,65.51
2022-12-29T16:48:11.847Z,65.28
2022-12-29T16:51:18.177Z,65.21
2022-12-29T16:54:29.925Z,65.07
2022-12-29T16:57:39.512Z,65.01
2022-12-29T17:00:48.824Z,65.15
2022-12-29T17:03:58.531Z,65.08
2022-12-29T17:07:05.349Z,65.11
2022-12-29T17:10:09.970Z,65.16
2022-12-29T17:13:14.403Z,65.37
2022-12-29T17:16:19.595Z,65.32
2022-12-29T17:19:33.270Z,65.25
2022-12-29T17:22:37.112Z,65.10
2022-12-29T17:25:41.103Z,65.12
2022-12-29T17:28:47.513Z,64.87
2022-12-29T17:31:54.531Z,65.42
2022-12-29T17:34:58.123Z,65.42
2022-12-29T17:38:02.248Z,65.38
2022-12-29T17:41:06.385Z,65.44
2022-12-29T17:44:19.035Z,65.26
2022-12-29T17:47:23.938Z,65.46
2022-12-29T17:50:32.509Z,65.73
2022-12-29T17:53:36.401Z,65.57
2022-12-29T17:56:45.335Z,65.66
2022-12-29T17:59:50.638Z,65.68
2022-12-29T18:02:57.009Z,65.85
2022-12-29T18:06:00.905Z,65.77
2022-12-29T18:09:08.832Z,65.96
2022-12-29T18:12:29.320Z,65.87
2022-12-29T18:15:36.567Z,65.37
2022-12-29T18:18:41.873Z,65.30
2022-12-29T18:21:45.840Z,65.79
2022-12-29T18:24:49.508Z,66.34
2022-12-29T18:27:53.674Z,66.37
2022-12-29T18:31:04.321Z,65.68
2022-12-29T18:34:15.628Z,66.33
2022-12-29T18:37:19.048Z,66.16
2022-12-29T18:40:25.559Z,65.67
2022-12-29T18:43:31.745Z,65.97
2022-12-29T18:46:37.475Z,66.78
2022-12-29T18:49:43.345Z,66.69
2022-12-29T18:52:47.719Z,67.03
2022-12-29T18:55:51.979Z,66.87
2022-12-29T18:59:00.512Z,66.51
2022-12-29T19:02:04.124Z,66.59
2022-12-29T19:05:21.269Z,66.96
2022-12-29T19:08:25.969Z,67.50
2022-12-29T19:11:30.223Z,67.23
2022-12-29T19:14:34.760Z,66.95
2022-12-29T19:17:38.696Z,66.25
2022-12-29T19:20:47.671Z,65.67
2022-12-29T19:23:54.446Z,64.68
2022-12-29T19:26:59.227Z,64.42
2022-12-29T19:30:06.369Z,65.67
2022-12-29T19:33:13.896Z,65.64
2022-12-29T19:36:23.797Z,65.41
2022-12-29T19:39:29.745Z,64.55
2022-12-29T19:42:34.334Z,65.00
2022-12-29T19:45:41.955Z,64.72
2022-12-29T19:48:47.428Z,65.40
2022-12-29T19:51:52.928Z,64.79
2022-12-29T19:54:57.022Z,66.17
2022-12-29T19:58:00.857Z,66.72
2022-12-29T20:01:08.278Z,66.48
2022-12-29T20:04:11.985Z,65.69
2022-12-29T20:07:19.769Z,66.26
2022-12-29T20:10:25.412Z,66.46
2022-12-29T20:13:29.633Z,65.68
2022-12-29T20:16:33.739Z,65.60
2022-12-29T20:19:39.192Z,64.79
2022-12-29T20:22:44.465Z,64.05
2022-12-29T20:25:55.717Z,63.92
2022-12-29T20:29:00.223Z,64.13
2022-12-29T20:32:05.036Z,64.10
2022-12-29T20:35:09.443Z,64.64
2022-12-29T20:38:14.863Z,64.91
2022-12-29T20:41:19.193Z,64.63
2022-12-29T20:44:23.297Z,64.36
2022-12-29T20:47:27.977Z,63.02
2022-12-29T20:50:32.033Z,62.64
2022-12-29T20:53:56.980Z,62.26
2022-12-29T20:57:01.249Z,63.46
2022-12-29T21:00:06.577Z,63.08
2022-12-29T21:03:11.775Z,63.08
2022-12-29T21:06:16.572Z,62.66
2022-12-29T21:09:21.953Z,62.63
2022-12-29T21:12:25.727Z,62.12
2022-12-29T21:15:30.087Z,62.84
2022-12-29T21:18:34.238Z,62.63
2022-12-29T21:21:41.889Z,63.77
2022-12-29T21:24:47.104Z,63.80
2022-12-29T21:27:51.640Z,62.59
2022-12-29T21:30:55.278Z,62.46
2022-12-29T21:34:00.418Z,63.67
2022-12-29T21:37:04.014Z,63.40
2022-12-29T21:40:12.137Z,63.39
2022-12-29T21:43:16.631Z,63.27
2022-12-29T21:46:22.761Z,63.01
2022-12-29T21:49:27.907Z,64.62
2022-12-29T21:52:31.703Z,63.33
2022-12-29T21:55:36.984Z,64.69
2022-12-29T21:59:00.294Z,65.35
2022-12-29T22:02:23.323Z,64.19
2022-12-29T22:05:49.946Z,64.54
2022-12-29T22:09:12.639Z,63.74
2022-12-29T22:12:35.387Z,63.82
2022-12-29T22:15:40.238Z,63.78
2022-12-29T22:18:44.544Z,64.61
2022-12-29T22:21:48.154Z,64.36
2022-12-29T22:24:53.485Z,64.21
2022-12-29T22:27:59.988Z,65.05
2022-12-29T22:31:03.915Z,64.53
2022-12-29T22:34:07.947Z,64.49
2022-12-29T22:37:14.760Z,64.07
2022-12-29T22:40:18.440Z,64.58
2022-12-29T22:43:26.334Z,65.09
2022-12-29T22:46:29.934Z,65.01
2022-12-29T22:49:33.834Z,64.54
2022-12-29T22:52:37.367Z,64.79
2022-12-29T22:55:43.365Z,64.54
2022-12-29T22:59:06.977Z,64.27
2022-12-29T23:02:11.146Z,64.17
2022-12-29T23:05:14.813Z,63.34
2022-12-29T23:08:19.413Z,63.14
2022-12-29T23:11:22.915Z,62.96
2022-12-29T23:14:33.204Z,62.93
2022-12-29T23:17:37.309Z,64.30
2022-12-29T23:20:41.931Z,63.67
2022-12-29T23:23:56.274Z,64.40
2022-12-29T23:27:00.318Z,64.31
2022-12-29T23:30:05.945Z,65.38
2022-12-29T23:33:10.175Z,64.82
2022-12-29T23:36:14.407Z,65.09
2022-12-29T23:39:24.591Z,64.52
2022-12-29T23:42:28.502Z,64.69
2022-12-29T23:45:39.361Z,64.40
2022-12-29T23:48:44.451Z,63.60
2022-12-29T23:51:49.310Z,63.01
2022-12-29T23:54:53.991Z,63.32
2022-12-29T23:57:58.189Z,63.48
